createdAt,value
2019-02-23T00:01:58.814Z,41.95
2019-02-23T00:04:27.681Z,40.38
2019-02-23T00:06:57.344Z,40.45
2019-02-23T00:09:26.111Z,40.03
2019-02-23T00:11:58.996Z,39.67
2019-02-23T00:14:48.874Z,41.98
2019-02-23T00:17:18.613Z,41.83
2019-02-23T00:19:48.881Z,40.35
2019-02-23T00:22:17.954Z,42.67
2019-02-23T00:24:46.730Z,43.08
2019-02-23T00:27:15.444Z,41.45
2019-02-23T00:29:45.042Z,43.92
2019-02-23T00:32:13.878Z,44.18
2019-02-23T00:34:42.591Z,44.77
2019-02-23T00:37:11.327Z,42.98
2019-02-23T00:39:40.042Z,41.92
2019-02-23T00:42:08.801Z,42.95
2019-02-23T00:44:37.550Z,44.88
2019-02-23T00:47:06.273Z,42.62
2019-02-23T00:49:36.632Z,45.67
2019-02-23T00:52:05.600Z,44.63
2019-02-23T00:54:34.358Z,45.17
2019-02-23T00:57:03.099Z,46.02
2019-02-23T00:59:31.834Z,45.63
2019-02-23T01:02:00.678Z,44.05
2019-02-23T01:04:29.390Z,42.23
2019-02-23T01:06:58.193Z,45.25
2019-02-23T01:09:27.038Z,43.87
2019-02-23T01:11:55.758Z,41.68
2019-02-23T01:14:24.513Z,42.98
2019-02-23T01:16:53.223Z,45.78
2019-02-23T01:19:21.962Z,45.88
2019-02-23T01:21:50.673Z,46.02
2019-02-23T01:24:19.394Z,46.58
2019-02-23T01:26:48.165Z,45.70
2019-02-23T01:29:16.878Z,44.83
2019-02-23T01:31:45.685Z,43.87
2019-02-23T01:34:16.896Z,45.58
2019-02-23T01:36:47.594Z,48.17
2019-02-23T01:39:16.378Z,46.53
2019-02-23T01:41:45.217Z,46.80
2019-02-23T01:44:13.918Z,46.08
2019-02-23T01:46:42.626Z,46.28
2019-02-23T01:49:11.393Z,45.83
2019-02-23T01:51:40.110Z,47.40
2019-02-23T01:54:08.878Z,44.08
2019-02-23T01:56:37.620Z,46.85
2019-02-23T01:59:06.317Z,46.37
2019-02-23T02:01:35.096Z,49.93
2019-02-23T02:04:03.850Z,46.70
2019-02-23T02:06:33.664Z,46.60
2019-02-23T02:09:02.871Z,45.80
2019-02-23T02:11:31.644Z,46.88
2019-02-23T02:14:00.470Z,44.18
2019-02-23T02:16:29.915Z,44.48
2019-02-23T02:18:58.657Z,43.38
2019-02-23T02:21:27.358Z,45.73
2019-02-23T02:23:56.264Z,46.02
2019-02-23T02:26:24.999Z,42.88
2019-02-23T02:28:53.706Z,46.65
2019-02-23T02:31:22.465Z,45.65
2019-02-23T02:34:19.626Z,45.35
2019-02-23T02:36:48.437Z,44.75
2019-02-23T02:39:17.120Z,48.55
2019-02-23T02:41:45.850Z,48.58
2019-02-23T02:44:14.632Z,47.40
2019-02-23T02:46:43.345Z,50.10
2019-02-23T02:49:12.077Z,47.45
2019-02-23T02:51:40.782Z,49.15
2019-02-23T02:54:10.767Z,48.20
2019-02-23T02:56:39.505Z,48.50
2019-02-23T02:59:08.355Z,49.13
2019-02-23T03:01:37.119Z,49.90
2019-02-23T03:04:05.977Z,50.88
2019-02-23T03:06:34.851Z,50.52
2019-02-23T03:09:04.104Z,50.85
2019-02-23T03:11:32.825Z,46.80
2019-02-23T03:14:02.450Z,46.15
2019-02-23T03:16:31.193Z,47.93
2019-02-23T03:18:59.926Z,47.88
2019-02-23T03:21:28.634Z,48.40
2019-02-23T03:23:59.639Z,48.55
2019-02-23T03:26:28.380Z,49.65
2019-02-23T03:28:57.070Z,49.15
2019-02-23T03:31:25.845Z,49.88
2019-02-23T03:33:54.668Z,48.48
2019-02-23T03:36:42.706Z,47.58
2019-02-23T03:39:11.626Z,47.65
2019-02-23T03:41:40.408Z,48.65
2019-02-23T03:44:10.102Z,47.00
2019-02-23T03:46:40.566Z,48.60
2019-02-23T03:49:09.280Z,49.93
2019-02-23T03:51:37.998Z,52.62
2019-02-23T03:54:06.722Z,50.75
2019-02-23T03:56:35.579Z,49.40
2019-02-23T03:59:04.353Z,51.75
2019-02-23T04:01:33.181Z,48.08
2019-02-23T04:04:01.906Z,46.95
2019-02-23T04:06:30.667Z,48.42
2019-02-23T04:08:59.442Z,49.63
2019-02-23T04:11:28.165Z,50.65
2019-02-23T04:13:56.921Z,51.05
2019-02-23T04:16:26.506Z,53.20
2019-02-23T04:18:55.266Z,49.33
2019-02-23T04:21:24.033Z,47.15
2019-02-23T04:23:55.317Z,49.13
2019-02-23T04:26:24.208Z,45.75
2019-02-23T04:28:53.809Z,44.25
2019-02-23T04:31:22.566Z,46.83
2019-02-23T04:33:51.353Z,45.58
2019-02-23T04:36:20.206Z,45.80
2019-02-23T04:38:50.154Z,45.35
2019-02-23T04:41:18.985Z,43.33
2019-02-23T04:43:47.698Z,43.65
2019-02-23T04:46:16.395Z,41.40
2019-02-23T04:48:52.520Z,38.13
2019-02-23T04:51:21.992Z,39.38
2019-02-23T04:53:50.724Z,39.90
2019-02-23T04:56:19.552Z,38.00
2019-02-23T04:58:50.672Z,38.98
2019-02-23T05:01:19.398Z,36.83
2019-02-23T05:03:48.133Z,38.33
2019-02-23T05:06:16.857Z,40.17
2019-02-23T05:08:45.578Z,35.83
2019-02-23T05:11:14.321Z,41.18
2019-02-23T05:13:43.035Z,42.58
2019-02-23T05:16:11.751Z,42.38
2019-02-23T05:18:41.374Z,38.33
2019-02-23T05:21:10.119Z,39.98
2019-02-23T05:23:38.898Z,39.35
2019-02-23T05:26:07.679Z,42.08
2019-02-23T05:28:36.425Z,43.00
2019-02-23T05:31:05.122Z,44.75
2019-02-23T05:33:33.840Z,46.13
2019-02-23T05:36:02.558Z,46.08
2019-02-23T05:38:31.266Z,49.73
2019-02-23T05:41:00.026Z,47.25
2019-02-23T05:43:28.765Z,47.60
2019-02-23T05:45:57.470Z,46.77
2019-02-23T05:48:26.170Z,46.02
2019-02-23T05:50:54.886Z,48.52
2019-02-23T05:53:23.596Z,47.75
2019-02-23T05:55:52.300Z,48.20
2019-02-23T05:58:21.061Z,50.70
2019-02-23T06:00:49.765Z,51.35
2019-02-23T06:03:18.478Z,50.60
2019-02-23T06:05:47.209Z,49.33
2019-02-23T06:08:15.917Z,49.42
2019-02-23T06:10:44.931Z,49.53
2019-02-23T06:13:13.927Z,48.80
2019-02-23T06:15:42.648Z,47.75
2019-02-23T06:18:11.370Z,50.03
2019-02-23T06:20:43.496Z,50.10
2019-02-23T06:23:12.189Z,48.92
2019-02-23T06:25:40.889Z,50.25
2019-02-23T06:28:09.623Z,51.88
2019-02-23T06:30:38.326Z,50.67
2019-02-23T06:33:07.034Z,47.60
2019-02-23T06:35:36.318Z,48.25
2019-02-23T06:38:05.086Z,50.48
2019-02-23T06:40:34.343Z,48.98
2019-02-23T06:43:22.382Z,49.95
2019-02-23T06:46:03.035Z,48.80
2019-02-23T06:48:32.903Z,48.55
2019-02-23T06:51:01.790Z,48.35
2019-02-23T06:53:30.501Z,50.43
2019-02-23T06:55:59.243Z,50.55
2019-02-23T06:58:28.131Z,53.33
2019-02-23T07:00:56.835Z,48.65
2019-02-23T07:03:25.546Z,51.20
2019-02-23T07:05:56.572Z,52.45
2019-02-23T07:08:25.287Z,51.90
2019-02-23T07:10:54.154Z,52.70
2019-02-23T07:13:22.902Z,53.10
2019-02-23T07:15:52.941Z,52.43
2019-02-23T07:18:21.652Z,52.93
2019-02-23T07:20:50.422Z,54.10
2019-02-23T07:23:19.570Z,54.93
2019-02-23T07:25:48.335Z,53.30
2019-02-23T07:28:17.247Z,49.98
2019-02-23T07:30:45.966Z,52.03
2019-02-23T07:33:14.959Z,52.65
2019-02-23T07:35:44.162Z,50.28
2019-02-23T07:38:13.347Z,50.50
2019-02-23T07:40:42.162Z,50.73
2019-02-23T07:43:10.985Z,50.20
2019-02-23T07:45:39.680Z,51.42
2019-02-23T07:48:08.624Z,48.50
2019-02-23T07:50:38.135Z,48.08
2019-02-23T07:53:06.936Z,49.45
2019-02-23T07:55:35.953Z,50.12
2019-02-23T07:58:06.822Z,49.93
2019-02-23T08:00:35.537Z,50.45
2019-02-23T08:03:04.382Z,47.65
2019-02-23T08:05:33.084Z,48.50
2019-02-23T08:08:01.793Z,48.15
2019-02-23T08:10:30.586Z,47.38
2019-02-23T08:12:59.304Z,46.20
2019-02-23T08:15:28.001Z,48.05
2019-02-23T08:17:56.745Z,49.10
2019-02-23T08:20:25.463Z,45.40
2019-02-23T08:22:55.146Z,48.08
2019-02-23T08:25:23.946Z,44.08
2019-02-23T08:27:52.648Z,43.90
2019-02-23T08:30:21.351Z,42.78
2019-02-23T08:32:50.154Z,41.02
2019-02-23T08:35:18.954Z,42.05
2019-02-23T08:37:47.652Z,42.03
2019-02-23T08:40:16.436Z,41.98
2019-02-23T08:42:45.175Z,39.10
2019-02-23T08:45:13.874Z,39.80
2019-02-23T08:47:42.610Z,39.40
2019-02-23T08:50:11.974Z,38.40
2019-02-23T08:52:48.422Z,37.63
2019-02-23T08:55:11.302Z,36.05
2019-02-23T08:57:59.392Z,35.48
2019-02-23T09:00:28.510Z,34.48
2019-02-23T09:02:57.451Z,34.73
2019-02-23T09:05:26.154Z,34.13
2019-02-23T09:07:54.887Z,33.48
2019-02-23T09:10:23.646Z,32.85
2019-02-23T09:12:52.422Z,31.52
2019-02-23T09:15:22.300Z,32.10
2019-02-23T09:17:51.230Z,31.52
2019-02-23T09:20:28.580Z,31.48
2019-02-23T09:22:59.712Z,29.92
2019-02-23T09:25:20.847Z,28.98
2019-02-23T09:27:49.694Z,31.55
2019-02-23T09:30:18.418Z,29.87
2019-02-23T09:32:47.215Z,29.32
2019-02-23T09:35:15.913Z,27.95
2019-02-23T09:37:44.660Z,27.67
2019-02-23T09:40:13.410Z,27.02
2019-02-23T09:42:42.142Z,27.62
2019-02-23T09:45:11.482Z,27.42
2019-02-23T09:47:40.199Z,25.70
2019-02-23T09:50:09.027Z,23.95
2019-02-23T09:52:37.758Z,22.82
2019-02-23T09:55:06.490Z,24.40
2019-02-23T09:57:35.194Z,23.55
2019-02-23T10:00:04.015Z,22.05
2019-02-23T10:02:32.732Z,21.05
2019-02-23T10:05:01.443Z,22.35
2019-02-23T10:07:31.084Z,21.70
2019-02-23T10:09:59.801Z,21.00
2019-02-23T10:12:28.652Z,20.70
2019-02-23T10:14:57.415Z,19.70
2019-02-23T10:17:26.110Z,18.73
2019-02-23T10:19:54.805Z,19.83
2019-02-23T10:22:23.526Z,19.67
2019-02-23T10:24:52.233Z,20.50
2019-02-23T10:27:20.938Z,20.17
2019-02-23T10:29:51.302Z,20.23
2019-02-23T10:32:20.009Z,18.67
2019-02-23T10:34:48.803Z,18.90
2019-02-23T10:37:17.544Z,17.37
2019-02-23T10:39:46.324Z,18.87
2019-02-23T10:42:15.040Z,19.23
2019-02-23T10:44:43.782Z,18.30
2019-02-23T10:47:12.546Z,19.00
2019-02-23T10:49:41.502Z,19.57
2019-02-23T10:52:10.242Z,18.70
2019-02-23T10:54:38.952Z,17.40
2019-02-23T10:57:07.696Z,17.63
2019-02-23T10:59:36.494Z,17.37
2019-02-23T11:02:05.254Z,17.43
2019-02-23T11:04:34.057Z,16.17
2019-02-23T11:07:02.774Z,17.27
2019-02-23T11:09:32.846Z,15.67
2019-02-23T11:12:01.632Z,18.47
2019-02-23T11:14:30.350Z,15.07
2019-02-23T11:16:59.054Z,15.17
2019-02-23T11:19:27.845Z,15.13
2019-02-23T11:21:56.563Z,16.20
2019-02-23T11:24:25.309Z,15.83
2019-02-23T11:26:54.018Z,15.83
2019-02-23T11:29:22.789Z,15.00
2019-02-23T11:31:51.629Z,16.00
2019-02-23T11:34:20.334Z,16.00
2019-02-23T11:36:49.069Z,16.23
2019-02-23T11:39:17.855Z,15.70
2019-02-23T11:41:46.694Z,16.70
2019-02-23T11:44:15.438Z,15.23
2019-02-23T11:46:59.240Z,15.80
2019-02-23T11:49:17.021Z,15.70
2019-02-23T11:51:45.818Z,14.70
2019-02-23T11:54:14.518Z,15.80
2019-02-23T11:56:43.300Z,16.07
2019-02-23T11:59:12.014Z,16.47
2019-02-23T12:01:40.998Z,15.90
2019-02-23T12:04:10.632Z,15.67
2019-02-23T12:06:39.334Z,15.10
2019-02-23T12:09:08.274Z,14.87
2019-02-23T12:11:37.819Z,15.67
2019-02-23T12:14:06.514Z,14.93
2019-02-23T12:16:35.470Z,15.83
2019-02-23T12:19:04.243Z,14.90
2019-02-23T12:24:06.331Z,16.87
2019-02-23T12:26:34.838Z,15.23
2019-02-23T12:29:03.558Z,16.30
2019-02-23T12:31:32.261Z,14.87
2019-02-23T12:34:01.178Z,16.40
2019-02-23T12:36:29.877Z,15.00
2019-02-23T12:38:58.602Z,15.17
2019-02-23T12:41:27.302Z,14.70
2019-02-23T12:43:56.018Z,14.87
2019-02-23T12:46:24.741Z,14.83
2019-02-23T12:48:53.443Z,13.40
2019-02-23T12:51:22.142Z,13.33
2019-02-23T12:53:50.854Z,14.27
2019-02-23T12:56:19.541Z,13.17
2019-02-23T12:58:48.840Z,13.47
2019-02-23T13:01:17.710Z,14.13
2019-02-23T13:03:46.415Z,13.07
2019-02-23T13:06:15.118Z,13.57
2019-02-23T13:09:12.173Z,13.60
2019-02-23T13:11:41.243Z,12.93
2019-02-23T13:15:01.020Z,13.60
2019-02-23T13:18:23.355Z,12.80
2019-02-23T13:21:23.870Z,14.00
2019-02-23T13:24:50.337Z,12.87
2019-02-23T13:27:29.311Z,12.87
2019-02-23T13:30:57.779Z,12.53
2019-02-23T13:34:13.876Z,12.30
2019-02-23T13:37:12.694Z,13.37
2019-02-23T13:40:22.549Z,13.33
2019-02-23T13:43:20.359Z,12.90
2019-02-23T13:46:16.420Z,12.90
2019-02-23T13:49:20.397Z,13.00
2019-02-23T13:52:42.691Z,12.57
2019-02-23T13:55:42.783Z,13.90
2019-02-23T13:58:35.742Z,12.97
2019-02-23T14:02:03.807Z,12.47
2019-02-23T14:05:26.099Z,13.87
2019-02-23T14:08:31.105Z,13.87
2019-02-23T14:11:35.005Z,14.50
2019-02-23T14:14:28.866Z,13.73
2019-02-23T14:17:29.413Z,13.80
2019-02-23T14:20:37.396Z,13.70
2019-02-23T14:23:33.673Z,13.27
2019-02-23T14:26:29.446Z,13.30
2019-02-23T14:29:39.361Z,13.50
2019-02-23T14:32:33.595Z,12.80
2019-02-23T14:35:32.402Z,13.17
2019-02-23T14:38:19.793Z,13.13
2019-02-23T14:41:32.994Z,13.90
2019-02-23T14:44:38.410Z,14.03
2019-02-23T14:47:45.134Z,14.07
2019-02-23T14:50:42.725Z,14.27
2019-02-23T14:53:33.870Z,14.63
2019-02-23T14:56:44.674Z,14.07
2019-02-23T15:00:04.179Z,15.00
2019-02-23T15:03:22.353Z,15.20
2019-02-23T15:06:28.691Z,15.13
2019-02-23T15:09:42.426Z,14.40
2019-02-23T15:12:41.790Z,15.20
2019-02-23T15:15:32.390Z,15.00
2019-02-23T15:18:44.658Z,15.70
2019-02-23T15:21:55.110Z,14.97
2019-02-23T15:24:51.474Z,14.90
2019-02-23T15:27:40.750Z,15.17
2019-02-23T15:30:52.330Z,14.50
2019-02-23T15:33:54.708Z,15.40
2019-02-23T15:37:00.165Z,24.17
2019-02-23T15:39:41.410Z,15.63
2019-02-23T15:43:04.089Z,15.00
2019-02-23T15:45:59.336Z,15.43
2019-02-23T15:49:30.957Z,15.00
2019-02-23T15:52:01.045Z,17.60
2019-02-23T15:54:29.834Z,17.37
2019-02-23T15:56:58.762Z,19.00
2019-02-23T15:59:27.482Z,18.73
2019-02-23T16:01:56.257Z,19.40
2019-02-23T16:04:24.993Z,19.50
2019-02-23T16:06:53.767Z,19.83
2019-02-23T16:09:22.515Z,19.40
2019-02-23T16:11:51.406Z,19.37
2019-02-23T16:14:20.187Z,19.97
2019-02-23T16:16:49.174Z,19.47
2019-02-23T16:19:17.889Z,19.07
2019-02-23T16:21:46.614Z,18.80
2019-02-23T16:24:15.404Z,18.10
2019-02-23T16:26:44.124Z,19.47
2019-02-23T16:29:12.941Z,19.53
2019-02-23T16:31:41.654Z,20.00
2019-02-23T16:34:10.354Z,19.13
2019-02-23T16:36:41.398Z,20.10
2019-02-23T16:39:13.211Z,19.03
2019-02-23T16:41:41.914Z,18.70
2019-02-23T16:44:10.699Z,20.60
2019-02-23T16:46:39.415Z,19.00
2019-02-23T16:49:08.158Z,19.07
2019-02-23T16:51:37.881Z,19.33
2019-02-23T16:54:06.599Z,19.83
2019-02-23T16:56:35.290Z,19.20
2019-02-23T16:59:04.022Z,19.57
2019-02-23T17:01:32.739Z,19.33
2019-02-23T17:04:01.453Z,18.50
2019-02-23T17:06:32.730Z,18.40
2019-02-23T17:09:00.593Z,19.83
2019-02-23T17:11:29.322Z,18.73
2019-02-23T17:13:58.106Z,19.73
2019-02-23T17:16:26.854Z,20.43
2019-02-23T17:18:57.529Z,20.03
2019-02-23T17:21:26.262Z,21.07
2019-02-23T17:23:56.745Z,20.03
2019-02-23T17:26:25.484Z,20.50
2019-02-23T17:28:54.269Z,19.30
2019-02-23T17:31:24.015Z,20.13
2019-02-23T17:33:52.767Z,20.77
2019-02-23T17:36:21.503Z,20.40
2019-02-23T17:38:50.538Z,20.83
2019-02-23T17:41:19.334Z,20.10
2019-02-23T17:43:48.057Z,20.10
2019-02-23T17:46:16.794Z,18.43
2019-02-23T17:48:45.586Z,19.23
2019-02-23T17:51:14.398Z,19.12
2019-02-23T17:53:43.134Z,19.62
2019-02-23T17:56:12.624Z,19.73
2019-02-23T17:58:42.506Z,19.12
2019-02-23T18:01:11.298Z,19.98
2019-02-23T18:03:40.366Z,19.90
2019-02-23T18:06:10.780Z,18.15
2019-02-23T18:08:39.760Z,19.97
2019-02-23T18:11:09.349Z,18.30
2019-02-23T18:13:38.358Z,19.60
2019-02-23T18:16:07.894Z,19.17
2019-02-23T18:18:36.727Z,18.12
2019-02-23T18:21:07.601Z,18.00
2019-02-23T18:23:37.662Z,18.92
2019-02-23T18:26:07.617Z,18.25
2019-02-23T18:28:36.516Z,18.85
2019-02-23T18:31:05.339Z,19.82
2019-02-23T18:33:34.078Z,19.15
2019-02-23T18:36:02.949Z,19.37
2019-02-23T18:38:33.046Z,19.25
2019-02-23T18:41:02.021Z,18.67
2019-02-23T18:43:30.742Z,19.95
2019-02-23T18:45:59.561Z,19.67
2019-02-23T18:48:28.302Z,19.35
2019-02-23T18:50:59.654Z,18.85
2019-02-23T18:53:28.635Z,19.32
2019-02-23T18:55:57.396Z,20.30
2019-02-23T18:58:26.622Z,20.15
2019-02-23T19:00:55.360Z,20.08
2019-02-23T19:03:24.165Z,20.10
2019-02-23T19:05:52.930Z,20.48
2019-02-23T19:08:21.682Z,21.30
2019-02-23T19:10:50.399Z,19.80
2019-02-23T19:13:19.191Z,18.62
2019-02-23T19:15:48.722Z,18.80
2019-02-23T19:18:18.920Z,19.30
2019-02-23T19:20:49.000Z,20.02
2019-02-23T19:23:17.793Z,21.05
2019-02-23T19:26:06.537Z,20.82
2019-02-23T19:28:43.059Z,21.40
2019-02-23T19:31:08.237Z,20.90
2019-02-23T19:33:37.865Z,22.60
2019-02-23T19:36:06.653Z,21.75
2019-02-23T19:38:35.405Z,20.55
2019-02-23T19:41:06.973Z,20.15
2019-02-23T19:43:35.695Z,19.35
2019-02-23T19:46:04.424Z,18.75
2019-02-23T19:48:33.129Z,20.15
2019-02-23T19:51:04.767Z,20.30
2019-02-23T19:53:33.524Z,20.50
2019-02-23T19:56:02.301Z,19.48
2019-02-23T19:58:31.078Z,19.50
2019-02-23T20:00:59.888Z,19.12
2019-02-23T20:03:28.758Z,18.95
2019-02-23T20:05:57.580Z,18.75
2019-02-23T20:08:26.399Z,18.80
2019-02-23T20:10:55.171Z,17.92
2019-02-23T20:13:23.911Z,25.15
2019-02-23T20:15:52.711Z,19.60
2019-02-23T20:18:21.479Z,19.20
2019-02-23T20:20:50.268Z,19.73
2019-02-23T20:23:18.965Z,19.52
2019-02-23T20:25:47.711Z,18.67
2019-02-23T20:28:16.528Z,19.30
2019-02-23T20:30:45.240Z,19.57
2019-02-23T20:33:14.071Z,18.48
2019-02-23T20:35:43.897Z,19.15
2019-02-23T20:38:12.782Z,17.87
2019-02-23T20:40:41.734Z,19.65
2019-02-23T20:43:10.526Z,20.50
2019-02-23T20:45:39.270Z,19.77
2019-02-23T20:48:08.091Z,19.82
2019-02-23T20:50:36.794Z,19.50
2019-02-23T20:53:05.672Z,20.30
2019-02-23T20:55:35.003Z,18.67
2019-02-23T20:58:04.527Z,20.95
2019-02-23T21:00:33.223Z,20.72
2019-02-23T21:03:01.955Z,19.20
2019-02-23T21:05:30.698Z,19.37
2019-02-23T21:07:59.408Z,19.32
2019-02-23T21:10:28.327Z,19.70
2019-02-23T21:12:57.112Z,20.27
2019-02-23T21:15:25.830Z,18.90
2019-02-23T21:17:54.642Z,18.85
2019-02-23T21:20:23.326Z,20.92
2019-02-23T21:22:52.795Z,25.25
2019-02-23T21:25:21.529Z,20.55
2019-02-23T21:27:50.262Z,21.42
2019-02-23T21:30:19.081Z,19.23
2019-02-23T21:32:48.006Z,19.77
2019-02-23T21:35:17.189Z,19.48
2019-02-23T21:37:46.103Z,20.15
2019-02-23T21:40:14.882Z,18.77
2019-02-23T21:42:43.628Z,18.98
2019-02-23T21:45:12.411Z,19.30
2019-02-23T21:47:41.242Z,19.23
2019-02-23T21:50:10.021Z,19.37
2019-02-23T21:52:38.737Z,21.15
2019-02-23T21:55:07.497Z,19.23
2019-02-23T21:57:36.236Z,19.77
2019-02-23T22:00:05.053Z,19.55
2019-02-23T22:02:33.784Z,19.17
2019-02-23T22:05:11.725Z,20.05
2019-02-23T22:07:32.990Z,19.35
2019-02-23T22:10:01.777Z,18.82
2019-02-23T22:12:30.575Z,19.70
2019-02-23T22:14:59.290Z,19.92
2019-02-23T22:17:28.041Z,19.07
2019-02-23T22:19:56.817Z,20.00
2019-02-23T22:22:25.641Z,20.05
2019-02-23T22:24:54.489Z,18.20
2019-02-23T22:27:31.122Z,17.65
2019-02-23T22:29:53.834Z,19.10
2019-02-23T22:32:22.547Z,20.32
2019-02-23T22:34:51.278Z,18.82
2019-02-23T22:37:20.078Z,19.37
2019-02-23T22:39:48.886Z,18.85
2019-02-23T22:42:17.701Z,18.92
2019-02-23T22:44:46.462Z,19.87
2019-02-23T22:47:15.240Z,19.27
2019-02-23T22:49:43.962Z,19.57
2019-02-23T22:52:12.678Z,19.50
2019-02-23T22:54:41.406Z,19.80
2019-02-23T22:57:10.182Z,19.60
2019-02-23T22:59:38.898Z,18.35
2019-02-23T23:02:07.926Z,20.37
2019-02-23T23:04:36.642Z,19.70
2019-02-23T23:07:05.334Z,18.42
2019-02-23T23:09:34.070Z,20.90
2019-02-23T23:12:02.777Z,18.77
2019-02-23T23:14:31.479Z,18.62
2019-02-23T23:17:00.217Z,19.45
2019-02-23T23:19:29.407Z,19.82
2019-02-23T23:21:58.111Z,19.35
2019-02-23T23:24:26.900Z,19.12
2019-02-23T23:26:55.782Z,18.00
2019-02-23T23:29:24.557Z,19.37
2019-02-23T23:31:53.366Z,19.37
2019-02-23T23:34:22.086Z,20.48
2019-02-23T23:36:50.802Z,21.05
2019-02-23T23:39:19.538Z,20.70
2019-02-23T23:41:48.279Z,20.10
2019-02-23T23:44:16.998Z,19.75
2019-02-23T23:46:45.811Z,19.70
2019-02-23T23:49:16.378Z,19.55
2019-02-23T23:51:45.060Z,18.67
2019-02-23T23:54:13.791Z,19.45
2019-02-23T23:56:42.574Z,19.67
2019-02-23T23:59:11.362Z,19.62
